ADDS - METARS form results

Aviation Digital Data Service (ADDS)

Output produced by METARs form (1032 UTC 19 April 2019)
found at http://aviationweather.gov/metar/data/
 
METAR text: KJOT 191015Z AUTO 01009G18KT 10SM OVC023 07/03 A2975 RMK AO2 T00680034
Conditions at: KJOT (JOLIET , IL, US) observed 1015 UTC 19 April 2019
Temperature: 6.8°C (44°F)
Dewpoint: 3.4°C (38°F) [RH = 79%]
Pressure (altimeter): 29.75 inches Hg (1007.5 mb)
Winds: from the N (10 degrees) at 10 MPH (9 knots; 4.6 m/s)
gusting to 21 MPH (18 knots; 9.3 m/s)
Visibility: 10 or more miles (16+ km)
Ceiling: 2300 feet AGL
Clouds: overcast cloud deck at 2300 feet AGL
Weather: automated observation with no human augmentation;
there may or may not be significant weather present at this time

METAR text: KJOT 190955Z AUTO 02014G19KT 10SM OVC023 07/03 A2974 RMK AO2 T00700032
Conditions at: KJOT (JOLIET , IL, US) observed 0955 UTC 19 April 2019
Temperature: 7.0°C (45°F)
Dewpoint: 3.2°C (38°F) [RH = 77%]
Pressure (altimeter): 29.74 inches Hg (1007.2 mb)
Winds: from the NNE (20 degrees) at 16 MPH (14 knots; 7.2 m/s)
gusting to 22 MPH (19 knots; 9.8 m/s)
Visibility: 10 or more miles (16+ km)
Ceiling: 2300 feet AGL
Clouds: overcast cloud deck at 2300 feet AGL
Weather: automated observation with no human augmentation;
there may or may not be significant weather present at this time

METAR text: KJOT 190935Z AUTO 02008G20KT 10SM OVC023 07/03 A2974 RMK AO2 T00700032
Conditions at: KJOT (JOLIET , IL, US) observed 0935 UTC 19 April 2019
Temperature: 7.0°C (45°F)
Dewpoint: 3.2°C (38°F) [RH = 77%]
Pressure (altimeter): 29.74 inches Hg (1007.2 mb)
Winds: from the NNE (20 degrees) at 9 MPH (8 knots; 4.1 m/s)
gusting to 23 MPH (20 knots; 10.3 m/s)
Visibility: 10 or more miles (16+ km)
Ceiling: 2300 feet AGL
Clouds: overcast cloud deck at 2300 feet AGL
Weather: automated observation with no human augmentation;
there may or may not be significant weather present at this time